UGSB/BUS METAR and TAF weather

Enter ICAO airport designator
Station Type Date Time Source
UGSB METAR 2019/06/17 05:00 UTC NOAA

UGSB 170500Z 15005KT 110V180 CAVOK 27/21 Q1009 NOSIG


Station Type Date Time Source
UGSB Decoded METAR 2019/06/17 05:00 UTC NOAA

Station name not available
Jun 17, 2019 - 01:00 AM EDT / 2019.06.17 0500 UTC
Wind: from the SSE (150 degrees) at 6 MPH (5 KT) (direction variable):0
Visibility: greater than 7 mile(s):0
Temperature: 80 F (27 C)
Dew Point: 69 F (21 C)
Relative Humidity: 69%
Pressure (altimeter): 29.80 in. Hg (1009 hPa)
ob: UGSB 170500Z 15005KT 110V180 CAVOK 27/21 Q1009 NOSIG
cycle: 5

Station Type Date Time Source
UGSB TAF 2019/06/17 06:04 UTC NOAA

TAF UGSB 170500Z 1706/1806 27007KT 9999 FEW025 TX27/1712Z TN21/1723Z
TEMPO 1707/1714 VRB10KT TSRA SCT012 BKN020CB
BECMG 1718/1720 13010KT PROB40
TEMPO 1720/1806 TSRA SCT020CB

Example: see airport list